sensor_id;sensor_type;location;lat;lon;timestamp;pressure;altitude;pressure_sealevel;temperature;humidity
21545;BME280;10933;50.754;11.508;2022-11-12T00:00:54;101275.47;;;1.18;100.00
21545;BME280;10933;50.754;11.508;2022-11-12T00:03:21;101285.00;;;1.11;100.00
21545;BME280;10933;50.754;11.508;2022-11-12T00:05:47;101283.31;;;1.10;100.00
21545;BME280;10933;50.754;11.508;2022-11-12T00:08:18;101280.44;;;1.04;100.00
21545;BME280;10933;50.754;11.508;2022-11-12T00:10:45;101274.53;;;1.00;100.00
21545;BME280;10933;50.754;11.508;2022-11-12T00:13:12;101280.56;;;1.02;100.00
21545;BME280;10933;50.754;11.508;2022-11-12T00:15:38;101280.16;;;0.97;100.00
21545;BME280;10933;50.754;11.508;2022-11-12T00:18:05;101282.13;;;0.95;100.00
21545;BME280;10933;50.754;11.508;2022-11-12T00:20:32;101277.66;;;0.96;100.00
21545;BME280;10933;50.754;11.508;2022-11-12T00:22:59;101272.09;;;0.89;100.00
21545;BME280;10933;50.754;11.508;2022-11-12T00:25:25;101276.81;;;0.95;100.00
21545;BME280;10933;50.754;11.508;2022-11-12T00:28:04;101277.28;;;0.91;100.00
21545;BME280;10933;50.754;11.508;2022-11-12T00:30:40;101276.00;;;0.85;100.00
21545;BME280;10933;50.754;11.508;2022-11-12T00:33:07;101274.75;;;0.89;100.00
21545;BME280;10933;50.754;11.508;2022-11-12T00:35:33;101272.78;;;0.91;100.00
21545;BME280;10933;50.754;11.508;2022-11-12T00:38:09;101276.69;;;0.87;100.00
21545;BME280;10933;50.754;11.508;2022-11-12T00:40:38;101278.13;;;0.81;100.00
21545;BME280;10933;50.754;11.508;2022-11-12T00:43:07;101271.13;;;0.90;100.00
21545;BME280;10933;50.754;11.508;2022-11-12T00:45:33;101278.38;;;0.88;100.00
21545;BME280;10933;50.754;11.508;2022-11-12T00:47:59;101281.03;;;0.88;100.00
21545;BME280;10933;50.754;11.508;2022-11-12T00:50:26;101280.63;;;0.83;100.00
21545;BME280;10933;50.754;11.508;2022-11-12T00:52:52;101280.34;;;0.86;100.00
21545;BME280;10933;50.754;11.508;2022-11-12T00:55:18;101286.25;;;0.80;100.00
21545;BME280;10933;50.754;11.508;2022-11-12T00:57:45;101277.00;;;0.84;100.00
21545;BME280;10933;50.754;11.508;2022-11-12T01:00:16;101280.25;;;0.78;100.00
21545;BME280;10933;50.754;11.508;2022-11-12T01:02:43;101280.09;;;0.79;100.00
21545;BME280;10933;50.754;11.508;2022-11-12T01:05:09;101287.09;;;0.80;100.00
21545;BME280;10933;50.754;11.508;2022-11-12T01:07:35;101273.97;;;0.79;100.00
21545;BME280;10933;50.754;11.508;2022-11-12T01:10:02;101277.59;;;0.78;100.00
21545;BME280;10933;50.754;11.508;2022-11-12T01:12:30;101273.69;;;0.72;100.00
21545;BME280;10933;50.754;11.508;2022-11-12T01:14:57;101278.16;;;0.72;100.00
21545;BME280;10933;50.754;11.508;2022-11-12T01:17:23;101265.56;;;0.74;100.00
21545;BME280;10933;50.754;11.508;2022-11-12T01:19:50;101270.03;;;0.73;100.00
21545;BME280;10933;50.754;11.508;2022-11-12T01:22:16;101267.84;;;0.69;100.00
21545;BME280;10933;50.754;11.508;2022-11-12T01:24:43;101267.22;;;0.75;100.00
21545;BME280;10933;50.754;11.508;2022-11-12T01:27:09;101267.53;;;0.72;100.00
21545;BME280;10933;50.754;11.508;2022-11-12T01:29:35;101258.28;;;0.76;100.00
21545;BME280;10933;50.754;11.508;2022-11-12T01:32:06;101262.66;;;0.77;100.00
21545;BME280;10933;50.754;11.508;2022-11-12T01:34:32;101257.75;;;0.72;100.00
21545;BME280;10933;50.754;11.508;2022-11-12T01:36:59;101267.97;;;0.77;100.00
21545;BME280;10933;50.754;11.508;2022-11-12T01:39:25;101263.59;;;0.76;100.00
21545;BME280;10933;50.754;11.508;2022-11-12T01:41:51;101257.59;;;0.74;100.00
21545;BME280;10933;50.754;11.508;2022-11-12T01:44:23;101266.66;;;0.81;100.00
21545;BME280;10933;50.754;11.508;2022-11-12T01:47:13;101268.06;;;0.75;100.00
21545;BME280;10933;50.754;11.508;2022-11-12T01:49:52;101262.38;;;0.70;100.00
21545;BME280;10933;50.754;11.508;2022-11-12T01:52:33;101259.03;;;0.68;100.00
21545;BME280;10933;50.754;11.508;2022-11-12T01:55:05;101255.53;;;0.68;100.00
21545;BME280;10933;50.754;11.508;2022-11-12T01:57:52;101260.03;;;0.57;100.00
21545;BME280;10933;50.754;11.508;2022-11-12T02:00:20;101256.41;;;0.58;100.00
21545;BME280;10933;50.754;11.508;2022-11-12T02:02:52;101252.91;;;0.58;100.00
21545;BME280;10933;50.754;11.508;2022-11-12T02:05:20;101253.34;;;0.53;100.00
21545;BME280;10933;50.754;11.508;2022-11-12T02:07:48;101251.41;;;0.46;100.00
21545;BME280;10933;50.754;11.508;2022-11-12T02:10:16;101252.66;;;0.51;100.00
21545;BME280;10933;50.754;11.508;2022-11-12T02:12:42;101256.41;;;0.49;100.00
21545;BME280;10933;50.754;11.508;2022-11-12T02:15:27;101255.03;;;0.45;100.00
21545;BME280;10933;50.754;11.508;2022-11-12T02:17:54;101254.78;;;0.38;100.00
21545;BME280;10933;50.754;11.508;2022-11-12T02:20:20;101251.41;;;0.36;100.00
21545;BME280;10933;50.754;11.508;2022-11-12T02:22:46;101253.22;;;0.45;100.00
21545;BME280;10933;50.754;11.508;2022-11-12T02:25:17;101256.72;;;0.36;100.00
21545;BME280;10933;50.754;11.508;2022-11-12T02:27:44;101255.06;;;0.35;100.00
21545;BME280;10933;50.754;11.508;2022-11-12T02:30:11;101258.00;;;0.32;100.00
21545;BME280;10933;50.754;11.508;2022-11-12T02:32:40;101257.31;;;0.30;100.00
21545;BME280;10933;50.754;11.508;2022-11-12T02:35:07;101265.28;;;0.30;100.00
21545;BME280;10933;50.754;11.508;2022-11-12T02:37:33;101254.94;;;0.27;100.00
21545;BME280;10933;50.754;11.508;2022-11-12T02:39:59;101254.13;;;0.26;100.00
21545;BME280;10933;50.754;11.508;2022-11-12T02:42:25;101254.22;;;0.25;100.00
21545;BME280;10933;50.754;11.508;2022-11-12T02:44:51;101259.81;;;0.22;100.00
21545;BME280;10933;50.754;11.508;2022-11-12T02:47:18;101251.88;;;0.22;100.00
21545;BME280;10933;50.754;11.508;2022-11-12T02:49:44;101252.56;;;0.24;100.00
21545;BME280;10933;50.754;11.508;2022-11-12T02:52:11;101254.81;;;0.28;100.00
21545;BME280;10933;50.754;11.508;2022-11-12T02:54:37;101254.50;;;0.41;100.00
21545;BME280;10933;50.754;11.508;2022-11-12T02:57:03;101254.19;;;0.44;100.00
21545;BME280;10933;50.754;11.508;2022-11-12T02:59:29;101260.50;;;0.34;100.00
21545;BME280;10933;50.754;11.508;2022-11-12T03:01:55;101251.72;;;0.33;100.00
21545;BME280;10933;50.754;11.508;2022-11-12T03:04:21;101248.91;;;0.25;100.00
21545;BME280;10933;50.754;11.508;2022-11-12T03:06:48;101250.63;;;0.26;100.00
21545;BME280;10933;50.754;11.508;2022-11-12T03:09:14;101243.91;;;0.22;100.00
21545;BME280;10933;50.754;11.508;2022-11-12T03:11:40;101250.34;;;0.29;100.00
21545;BME280;10933;50.754;11.508;2022-11-12T03:14:06;101246.56;;;0.22;100.00
21545;BME280;10933;50.754;11.508;2022-11-12T03:16:32;101250.63;;;0.26;100.00
21545;BME280;10933;50.754;11.508;2022-11-12T03:18:58;101252.84;;;0.21;100.00
21545;BME280;10933;50.754;11.508;2022-11-12T03:21:24;101253.97;;;0.18;100.00
21545;BME280;10933;50.754;11.508;2022-11-12T03:23:51;101261.50;;;0.23;100.00
21545;BME280;10933;50.754;11.508;2022-11-12T03:26:17;101258.44;;;0.18;100.00
21545;BME280;10933;50.754;11.508;2022-11-12T03:28:43;101252.59;;;0.14;100.00
21545;BME280;10933;50.754;11.508;2022-11-12T03:31:09;101255.78;;;0.18;100.00
21545;BME280;10933;50.754;11.508;2022-11-12T03:33:37;101254.81;;;0.19;100.00
21545;BME280;10933;50.754;11.508;2022-11-12T03:36:04;101262.63;;;0.20;100.00
21545;BME280;10933;50.754;11.508;2022-11-12T03:38:30;101264.72;;;0.17;100.00
21545;BME280;10933;50.754;11.508;2022-11-12T03:40:56;101264.03;;;0.15;100.00
21545;BME280;10933;50.754;11.508;2022-11-12T03:43:22;101266.84;;;0.13;100.00
21545;BME280;10933;50.754;11.508;2022-11-12T03:45:48;101260.28;;;0.08;100.00
21545;BME280;10933;50.754;11.508;2022-11-12T03:48:14;101259.56;;;0.06;100.00
21545;BME280;10933;50.754;11.508;2022-11-12T03:50:41;101253.28;;;0.07;100.00
21545;BME280;10933;50.754;11.508;2022-11-12T03:53:07;101256.22;;;0.04;100.00
21545;BME280;10933;50.754;11.508;2022-11-12T03:55:33;101252.75;;;0.03;100.00
21545;BME280;10933;50.754;11.508;2022-11-12T03:58:00;101256.09;;;0.05;100.00
21545;BME280;10933;50.754;11.508;2022-11-12T04:00:27;101252.84;;;0.11;100.00
21545;BME280;10933;50.754;11.508;2022-11-12T04:02:54;101258.44;;;0.18;100.00
21545;BME280;10933;50.754;11.508;2022-11-12T04:05:21;101251.19;;;0.20;100.00
21545;BME280;10933;50.754;11.508;2022-11-12T04:08:14;101257.88;;;0.24;100.00
21545;BME280;10933;50.754;11.508;2022-11-12T04:11:00;101261.94;;;0.28;100.00
21545;BME280;10933;50.754;11.508;2022-11-12T04:13:27;101253.69;;;0.31;100.00
21545;BME280;10933;50.754;11.508;2022-11-12T04:15:55;101246.41;;;0.33;100.00
21545;BME280;10933;50.754;11.508;2022-11-12T04:18:41;101236.06;;;0.30;100.00
21545;BME280;10933;50.754;11.508;2022-11-12T04:21:41;101238.88;;;0.28;100.00
21545;BME280;10933;50.754;11.508;2022-11-12T04:24:30;101244.19;;;0.28;100.00
21545;BME280;10933;50.754;11.508;2022-11-12T04:27:24;101238.88;;;0.19;100.00
21545;BME280;10933;50.754;11.508;2022-11-12T04:29:51;101242.13;;;0.13;100.00
21545;BME280;10933;50.754;11.508;2022-11-12T04:32:38;101240.84;;;-0.03;100.00
21545;BME280;10933;50.754;11.508;2022-11-12T04:35:05;101247.56;;;-0.18;100.00
21545;BME280;10933;50.754;11.508;2022-11-12T04:37:33;101238.09;;;-0.20;100.00
21545;BME280;10933;50.754;11.508;2022-11-12T04:40:29;101244.38;;;-0.31;100.00
21545;BME280;10933;50.754;11.508;2022-11-12T04:43:16;101247.88;;;-0.21;100.00
21545;BME280;10933;50.754;11.508;2022-11-12T04:46:02;101250.06;;;-0.26;100.00
21545;BME280;10933;50.754;11.508;2022-11-12T04:48:29;101247.59;;;-0.37;100.00
21545;BME280;10933;50.754;11.508;2022-11-12T04:51:03;101245.75;;;-0.46;100.00
21545;BME280;10933;50.754;11.508;2022-11-12T04:53:53;101246.16;;;-0.51;100.00
21545;BME280;10933;50.754;11.508;2022-11-12T04:56:20;101245.31;;;-0.51;100.00
21545;BME280;10933;50.754;11.508;2022-11-12T04:58:46;101250.31;;;-0.68;100.00
21545;BME280;10933;50.754;11.508;2022-11-12T05:01:13;101255.09;;;-0.52;100.00
21545;BME280;10933;50.754;11.508;2022-11-12T05:03:39;101261.09;;;-0.60;100.00
21545;BME280;10933;50.754;11.508;2022-11-12T05:06:06;101257.28;;;-0.67;100.00
21545;BME280;10933;50.754;11.508;2022-11-12T05:08:55;101261.19;;;-0.71;100.00
21545;BME280;10933;50.754;11.508;2022-11-12T05:11:21;101260.94;;;-0.58;100.00
21545;BME280;10933;50.754;11.508;2022-11-12T05:13:47;101264.28;;;-0.66;100.00
21545;BME280;10933;50.754;11.508;2022-11-12T05:16:13;101262.69;;;-0.78;100.00
21545;BME280;10933;50.754;11.508;2022-11-12T05:18:39;101260.28;;;-0.91;100.00
21545;BME280;10933;50.754;11.508;2022-11-12T05:21:05;101257.25;;;-0.86;100.00
21545;BME280;10933;50.754;11.508;2022-11-12T05:23:51;101256.72;;;-0.80;100.00
21545;BME280;10933;50.754;11.508;2022-11-12T05:26:18;101250.59;;;-0.71;100.00
21545;BME280;10933;50.754;11.508;2022-11-12T05:28:44;101257.41;;;-0.78;100.00
21545;BME280;10933;50.754;11.508;2022-11-12T05:31:10;101267.88;;;-0.76;100.00
21545;BME280;10933;50.754;11.508;2022-11-12T05:33:36;101265.91;;;-0.84;100.00
21545;BME280;10933;50.754;11.508;2022-11-12T05:36:02;101262.00;;;-0.80;100.00
21545;BME280;10933;50.754;11.508;2022-11-12T05:38:28;101250.00;;;-0.84;100.00
21545;BME280;10933;50.754;11.508;2022-11-12T05:40:54;101255.41;;;-0.95;100.00
21545;BME280;10933;50.754;11.508;2022-11-12T05:43:21;101253.59;;;-0.95;100.00
21545;BME280;10933;50.754;11.508;2022-11-12T05:45:47;101258.06;;;-0.95;100.00
21545;BME280;10933;50.754;11.508;2022-11-12T05:48:13;101261.88;;;-0.88;100.00
21545;BME280;10933;50.754;11.508;2022-11-12T05:50:39;101253.88;;;-0.98;100.00
21545;BME280;10933;50.754;11.508;2022-11-12T05:53:05;101250.53;;;-1.00;100.00
21545;BME280;10933;50.754;11.508;2022-11-12T05:55:31;101256.38;;;-0.96;100.00
21545;BME280;10933;50.754;11.508;2022-11-12T05:57:57;101262.06;;;-1.10;100.00
21545;BME280;10933;50.754;11.508;2022-11-12T06:00:24;101261.09;;;-1.09;100.00
21545;BME280;10933;50.754;11.508;2022-11-12T06:02:50;101261.97;;;-0.99;100.00
21545;BME280;10933;50.754;11.508;2022-11-12T06:05:16;101269.72;;;-1.07;100.00
21545;BME280;10933;50.754;11.508;2022-11-12T06:07:42;101262.38;;;-0.94;100.00
21545;BME280;10933;50.754;11.508;2022-11-12T06:10:09;101264.34;;;-0.96;100.00
21545;BME280;10933;50.754;11.508;2022-11-12T06:12:35;101272.00;;;-0.93;100.00
21545;BME280;10933;50.754;11.508;2022-11-12T06:15:01;101274.94;;;-0.96;100.00
21545;BME280;10933;50.754;11.508;2022-11-12T06:17:27;101282.59;;;-0.93;100.00
21545;BME280;10933;50.754;11.508;2022-11-12T06:19:53;101276.19;;;-1.00;100.00
21545;BME280;10933;50.754;11.508;2022-11-12T06:22:19;101277.84;;;-0.99;100.00
21545;BME280;10933;50.754;11.508;2022-11-12T06:24:46;101277.41;;;-1.04;100.00
21545;BME280;10933;50.754;11.508;2022-11-12T06:27:12;101273.34;;;-1.08;100.00
21545;BME280;10933;50.754;11.508;2022-11-12T06:29:38;101273.41;;;-0.99;100.00
21545;BME280;10933;50.754;11.508;2022-11-12T06:32:04;101279.81;;;-0.92;100.00
21545;BME280;10933;50.754;11.508;2022-11-12T06:34:30;101279.03;;;-0.82;100.00
21545;BME280;10933;50.754;11.508;2022-11-12T06:36:57;101272.03;;;-0.83;100.00
21545;BME280;10933;50.754;11.508;2022-11-12T06:39:23;101280.69;;;-0.81;100.00
21545;BME280;10933;50.754;11.508;2022-11-12T06:41:49;101277.63;;;-0.77;100.00
21545;BME280;10933;50.754;11.508;2022-11-12T06:44:15;101268.31;;;-0.71;100.00
21545;BME280;10933;50.754;11.508;2022-11-12T06:46:42;101272.22;;;-0.66;100.00
21545;BME280;10933;50.754;11.508;2022-11-12T06:49:08;101285.78;;;-0.59;100.00
21545;BME280;10933;50.754;11.508;2022-11-12T06:51:34;101277.84;;;-0.49;100.00
21545;BME280;10933;50.754;11.508;2022-11-12T06:54:00;101276.03;;;-0.39;100.00
21545;BME280;10933;50.754;11.508;2022-11-12T06:56:27;101277.44;;;-0.25;100.00
21545;BME280;10933;50.754;11.508;2022-11-12T06:58:53;101282.06;;;-0.18;100.00
21545;BME280;10933;50.754;11.508;2022-11-12T07:01:19;101295.34;;;-0.08;100.00
21545;BME280;10933;50.754;11.508;2022-11-12T07:03:45;101285.97;;;-0.12;100.00
21545;BME280;10933;50.754;11.508;2022-11-12T07:06:14;101287.63;;;-0.02;100.00
21545;BME280;10933;50.754;11.508;2022-11-12T07:08:44;101283.59;;;0.14;100.00
21545;BME280;10933;50.754;11.508;2022-11-12T07:11:10;101288.88;;;0.33;100.00
21545;BME280;10933;50.754;11.508;2022-11-12T07:13:37;101293.59;;;0.49;100.00
21545;BME280;10933;50.754;11.508;2022-11-12T07:16:07;101294.00;;;0.64;100.00
21545;BME280;10933;50.754;11.508;2022-11-12T07:18:34;101287.63;;;0.84;100.00
21545;BME280;10933;50.754;11.508;2022-11-12T07:23:44;101287.56;;;1.03;100.00
21545;BME280;10933;50.754;11.508;2022-11-12T07:26:23;101287.50;;;1.13;100.00
21545;BME280;10933;50.754;11.508;2022-11-12T07:28:51;101290.50;;;1.55;100.00
21545;BME280;10933;50.754;11.508;2022-11-12T07:31:18;101285.19;;;1.55;100.00
21545;BME280;10933;50.754;11.508;2022-11-12T07:33:48;101283.13;;;1.85;100.00
21545;BME280;10933;50.754;11.508;2022-11-12T07:36:17;101284.66;;;2.05;100.00
21545;BME280;10933;50.754;11.508;2022-11-12T07:38:44;101281.78;;;1.98;100.00
21545;BME280;10933;50.754;11.508;2022-11-12T07:41:18;101280.22;;;2.31;100.00
21545;BME280;10933;50.754;11.508;2022-11-12T07:43:45;101280.13;;;2.67;100.00
21545;BME280;10933;50.754;11.508;2022-11-12T07:46:17;101277.06;;;2.88;100.00
21545;BME280;10933;50.754;11.508;2022-11-12T07:48:44;101271.69;;;3.06;100.00
21545;BME280;10933;50.754;11.508;2022-11-12T07:51:18;101270.22;;;3.78;100.00
21545;BME280;10933;50.754;11.508;2022-11-12T07:53:45;101265.66;;;4.76;100.00
21545;BME280;10933;50.754;11.508;2022-11-12T07:56:17;101258.91;;;6.35;100.00
21545;BME280;10933;50.754;11.508;2022-11-12T07:58:44;101251.72;;;7.60;100.00
21545;BME280;10933;50.754;11.508;2022-11-12T08:03:40;101222.94;;;10.69;100.00
21545;BME280;10933;50.754;11.508;2022-11-12T08:06:07;101193.22;;;10.82;100.00
21545;BME280;10933;50.754;11.508;2022-11-12T08:08:33;101171.72;;;11.07;100.00
21545;BME280;10933;50.754;11.508;2022-11-12T08:10:59;101157.38;;;11.76;100.00
21545;BME280;10933;50.754;11.508;2022-11-12T08:13:25;101180.34;;;13.64;100.00
21545;BME280;10933;50.754;11.508;2022-11-12T08:15:51;101232.38;;;11.56;100.00
21545;BME280;10933;50.754;11.508;2022-11-12T08:18:18;101243.22;;;11.49;100.00
21545;BME280;10933;50.754;11.508;2022-11-12T08:20:44;101245.16;;;10.65;100.00
21545;BME280;10933;50.754;11.508;2022-11-12T08:23:10;101232.41;;;10.98;100.00
21545;BME280;10933;50.754;11.508;2022-11-12T08:25:36;101240.25;;;11.13;100.00
21545;BME280;10933;50.754;11.508;2022-11-12T08:28:02;101241.38;;;12.13;100.00
21545;BME280;10933;50.754;11.508;2022-11-12T08:30:29;101247.47;;;11.70;100.00
21545;BME280;10933;50.754;11.508;2022-11-12T08:35:23;101234.81;;;10.35;100.00
21545;BME280;10933;50.754;11.508;2022-11-12T08:37:49;101221.50;;;10.14;100.00
21545;BME280;10933;50.754;11.508;2022-11-12T08:40:15;101216.50;;;11.66;100.00
21545;BME280;10933;50.754;11.508;2022-11-12T08:42:41;101229.28;;;13.02;100.00
21545;BME280;10933;50.754;11.508;2022-11-12T08:45:08;101240.97;;;13.21;100.00
21545;BME280;10933;50.754;11.508;2022-11-12T08:47:34;101246.34;;;13.58;100.00
21545;BME280;10933;50.754;11.508;2022-11-12T08:50:00;101249.91;;;14.65;100.00
21545;BME280;10933;50.754;11.508;2022-11-12T08:52:26;101248.47;;;14.86;100.00
21545;BME280;10933;50.754;11.508;2022-11-12T08:54:52;101249.88;;;14.41;100.00
21545;BME280;10933;50.754;11.508;2022-11-12T08:57:18;101252.31;;;17.16;100.00
21545;BME280;10933;50.754;11.508;2022-11-12T08:59:45;101278.03;;;18.87;100.00
21545;BME280;10933;50.754;11.508;2022-11-12T09:02:13;101275.97;;;17.76;100.00
21545;BME280;10933;50.754;11.508;2022-11-12T09:04:39;101277.09;;;16.76;100.00
21545;BME280;10933;50.754;11.508;2022-11-12T09:07:06;101262.88;;;14.86;100.00
21545;BME280;10933;50.754;11.508;2022-11-12T09:09:32;101250.31;;;14.27;100.00
21545;BME280;10933;50.754;11.508;2022-11-12T09:11:58;101234.16;;;14.32;100.00
21545;BME280;10933;50.754;11.508;2022-11-12T09:14:25;101223.59;;;15.17;100.00
21545;BME280;10933;50.754;11.508;2022-11-12T09:16:51;101234.53;;;15.74;100.00
21545;BME280;10933;50.754;11.508;2022-11-12T09:19:17;101241.44;;;15.25;100.00
21545;BME280;10933;50.754;11.508;2022-11-12T09:21:43;101242.31;;;15.02;100.00
21545;BME280;10933;50.754;11.508;2022-11-12T09:24:09;101235.91;;;14.14;100.00
21545;BME280;10933;50.754;11.508;2022-11-12T09:26:36;101231.72;;;14.89;100.00
21545;BME280;10933;50.754;11.508;2022-11-12T09:29:02;101221.38;;;14.21;100.00
21545;BME280;10933;50.754;11.508;2022-11-12T09:31:28;101216.38;;;13.52;100.00
21545;BME280;10933;50.754;11.508;2022-11-12T09:33:54;101205.66;;;12.29;100.00
21545;BME280;10933;50.754;11.508;2022-11-12T09:36:20;101186.63;;;11.55;100.00
21545;BME280;10933;50.754;11.508;2022-11-12T09:38:46;101190.25;;;11.42;100.00
21545;BME280;10933;50.754;11.508;2022-11-12T09:41:22;101181.66;;;11.52;100.00
21545;BME280;10933;50.754;11.508;2022-11-12T09:44:19;101180.00;;;11.50;100.00
21545;BME280;10933;50.754;11.508;2022-11-12T09:46:52;101170.66;;;11.85;100.00
21545;BME280;10933;50.754;11.508;2022-11-12T09:49:43;101176.16;;;11.71;100.00
21545;BME280;10933;50.754;11.508;2022-11-12T09:52:26;101176.75;;;11.73;100.00
21545;BME280;10933;50.754;11.508;2022-11-12T09:55:32;101168.38;;;11.50;100.00
21545;BME280;10933;50.754;11.508;2022-11-12T09:57:59;101169.50;;;11.67;100.00
21545;BME280;10933;50.754;11.508;2022-11-12T10:00:26;101178.91;;;12.21;100.00
21545;BME280;10933;50.754;11.508;2022-11-12T10:03:07;101184.97;;;12.78;100.00
21545;BME280;10933;50.754;11.508;2022-11-12T10:05:49;101195.25;;;14.61;100.00
21545;BME280;10933;50.754;11.508;2022-11-12T10:17:38;101258.75;;;20.89;100.00
21545;BME280;10933;50.754;11.508;2022-11-12T10:20:24;101263.75;;;22.40;87.94
21545;BME280;10933;50.754;11.508;2022-11-12T10:23:24;101264.38;;;23.80;72.25
21545;BME280;10933;50.754;11.508;2022-11-12T10:25:55;101256.56;;;23.02;75.00
21545;BME280;10933;50.754;11.508;2022-11-12T10:28:29;101254.09;;;22.71;67.59
21545;BME280;10933;50.754;11.508;2022-11-12T10:31:16;101244.00;;;20.28;83.80
21545;BME280;10933;50.754;11.508;2022-11-12T10:33:43;101238.38;;;21.25;82.49
21545;BME280;10933;50.754;11.508;2022-11-12T10:36:32;101226.13;;;19.60;90.80
21545;BME280;10933;50.754;11.508;2022-11-12T10:39:00;101229.66;;;22.41;81.55
21545;BME280;10933;50.754;11.508;2022-11-12T10:41:28;101220.28;;;21.73;84.65
21545;BME280;10933;50.754;11.508;2022-11-12T10:44:08;101230.47;;;22.07;79.95
21545;BME280;10933;50.754;11.508;2022-11-12T10:46:38;101221.56;;;22.20;74.06
21545;BME280;10933;50.754;11.508;2022-11-12T10:49:22;101221.19;;;22.61;73.99
21545;BME280;10933;50.754;11.508;2022-11-12T10:51:58;101210.28;;;20.03;98.40
21545;BME280;10933;50.754;11.508;2022-11-12T10:54:29;101216.41;;;21.74;85.11
21545;BME280;10933;50.754;11.508;2022-11-12T10:57:19;101208.47;;;21.73;82.64
21545;BME280;10933;50.754;11.508;2022-11-12T10:59:45;101197.94;;;19.59;91.70
21545;BME280;10933;50.754;11.508;2022-11-12T11:02:16;101201.16;;;18.41;100.00
21545;BME280;10933;50.754;11.508;2022-11-12T11:04:44;101193.44;;;19.28;100.00
21545;BME280;10933;50.754;11.508;2022-11-12T11:07:20;101180.69;;;19.69;100.00
21545;BME280;10933;50.754;11.508;2022-11-12T11:09:55;101184.00;;;20.27;100.00
21545;BME280;10933;50.754;11.508;2022-11-12T11:12:27;101166.63;;;17.88;100.00
21545;BME280;10933;50.754;11.508;2022-11-12T11:15:19;101165.53;;;17.35;100.00
21545;BME280;10933;50.754;11.508;2022-11-12T11:17:46;101157.41;;;16.53;100.00
21545;BME280;10933;50.754;11.508;2022-11-12T11:20:18;101147.72;;;16.62;100.00
21545;BME280;10933;50.754;11.508;2022-11-12T11:22:56;101143.50;;;16.32;100.00
21545;BME280;10933;50.754;11.508;2022-11-12T11:25:28;101140.22;;;16.69;100.00
21545;BME280;10933;50.754;11.508;2022-11-12T11:33:56;101145.47;;;17.46;100.00
21545;BME280;10933;50.754;11.508;2022-11-12T11:36:38;101153.88;;;19.71;100.00
21545;BME280;10933;50.754;11.508;2022-11-12T11:50:42;101147.25;;;20.53;100.00
21545;BME280;10933;50.754;11.508;2022-11-12T11:56:28;101147.84;;;19.89;100.00
21545;BME280;10933;50.754;11.508;2022-11-12T11:59:26;101153.44;;;21.44;98.59
21545;BME280;10933;50.754;11.508;2022-11-12T12:02:21;101142.88;;;20.27;100.00
21545;BME280;10933;50.754;11.508;2022-11-12T12:05:09;101136.63;;;19.86;100.00
21545;BME280;10933;50.754;11.508;2022-11-12T12:11:11;101134.81;;;18.46;100.00
21545;BME280;10933;50.754;11.508;2022-11-12T12:16:25;101138.97;;;18.16;100.00
21545;BME280;10933;50.754;11.508;2022-11-12T12:21:47;101117.41;;;17.51;100.00
21545;BME280;10933;50.754;11.508;2022-11-12T12:24:22;101118.31;;;17.29;100.00
21545;BME280;10933;50.754;11.508;2022-11-12T12:27:14;101112.56;;;17.04;100.00
21545;BME280;10933;50.754;11.508;2022-11-12T12:30:02;101100.47;;;16.73;100.00
21545;BME280;10933;50.754;11.508;2022-11-12T12:32:37;101089.78;;;16.28;100.00
21545;BME280;10933;50.754;11.508;2022-11-12T12:35:29;101073.91;;;16.03;100.00
21545;BME280;10933;50.754;11.508;2022-11-12T12:43:51;101060.50;;;15.79;100.00
21545;BME280;10933;50.754;11.508;2022-11-12T12:46:24;101053.47;;;15.83;100.00
21545;BME280;10933;50.754;11.508;2022-11-12T12:48:51;101051.84;;;15.66;100.00
21545;BME280;10933;50.754;11.508;2022-11-12T12:51:19;101051.16;;;15.42;100.00
21545;BME280;10933;50.754;11.508;2022-11-12T12:53:46;101041.78;;;15.66;100.00
21545;BME280;10933;50.754;11.508;2022-11-12T12:58:46;101042.25;;;15.97;100.00
21545;BME280;10933;50.754;11.508;2022-11-12T13:09:04;101024.19;;;15.57;100.00
21545;BME280;10933;50.754;11.508;2022-11-12T13:48:08;101013.16;;;14.04;100.00
21545;BME280;10933;50.754;11.508;2022-11-12T13:50:37;101019.75;;;13.97;100.00
21545;BME280;10933;50.754;11.508;2022-11-12T13:53:07;101014.13;;;13.98;100.00
21545;BME280;10933;50.754;11.508;2022-11-12T13:55:35;101013.41;;;13.91;100.00
21545;BME280;10933;50.754;11.508;2022-11-12T13:58:01;101001.97;;;13.77;100.00
21545;BME280;10933;50.754;11.508;2022-11-12T14:00:28;100987.69;;;13.82;100.00
21545;BME280;10933;50.754;11.508;2022-11-12T14:02:58;100980.03;;;13.67;100.00
21545;BME280;10933;50.754;11.508;2022-11-12T14:05:30;100987.47;;;13.72;100.00
21545;BME280;10933;50.754;11.508;2022-11-12T14:11:37;100983.22;;;13.29;100.00
21545;BME280;10933;50.754;11.508;2022-11-12T14:22:32;100966.78;;;12.41;100.00
21545;BME280;10933;50.754;11.508;2022-11-12T14:25:01;100961.72;;;12.14;100.00
21545;BME280;10933;50.754;11.508;2022-11-12T14:27:31;100957.97;;;11.97;100.00
21545;BME280;10933;50.754;11.508;2022-11-12T14:32:45;100954.28;;;11.48;100.00
21545;BME280;10933;50.754;11.508;2022-11-12T14:35:28;100955.72;;;11.26;100.00
21545;BME280;10933;50.754;11.508;2022-11-12T14:37:58;100957.59;;;11.00;100.00
21545;BME280;10933;50.754;11.508;2022-11-12T14:40:29;100954.00;;;10.81;100.00
21545;BME280;10933;50.754;11.508;2022-11-12T14:42:56;100960.56;;;10.60;100.00
21545;BME280;10933;50.754;11.508;2022-11-12T14:45:23;100959.16;;;10.51;100.00